createdAt,value
2018-08-19T00:00:54.866Z,48.30
2018-08-19T00:01:59.987Z,48.30
2018-08-19T00:03:05.058Z,48.30
2018-08-19T00:04:10.175Z,48.30
2018-08-19T00:05:15.208Z,48.20
2018-08-19T00:06:20.183Z,48.30
2018-08-19T00:07:25.771Z,48.30
2018-08-19T00:08:31.373Z,48.30
2018-08-19T00:09:36.433Z,48.30
2018-08-19T00:10:41.491Z,48.30
2018-08-19T00:11:47.131Z,48.30
2018-08-19T00:12:52.045Z,48.30
2018-08-19T00:13:57.783Z,48.30
2018-08-19T00:15:02.684Z,48.30
2018-08-19T00:16:07.724Z,48.30
2018-08-19T00:17:12.862Z,48.30
2018-08-19T00:18:18.043Z,48.30
2018-08-19T00:19:23.049Z,48.30
2018-08-19T00:20:27.942Z,48.40
2018-08-19T00:21:32.978Z,48.30
2018-08-19T00:22:38.122Z,48.30
2018-08-19T00:23:43.832Z,48.30
2018-08-19T00:24:49.025Z,48.40
2018-08-19T00:25:54.185Z,48.40
2018-08-19T00:26:59.887Z,48.40
2018-08-19T00:28:04.956Z,48.40
2018-08-19T00:29:10.575Z,48.40
2018-08-19T00:30:15.755Z,48.40
2018-08-19T00:31:21.321Z,48.40
2018-08-19T00:32:26.282Z,48.40
2018-08-19T00:33:31.147Z,48.40
2018-08-19T00:34:36.886Z,48.40
2018-08-19T00:35:42.620Z,48.40
2018-08-19T00:36:47.759Z,48.50
2018-08-19T00:37:52.864Z,49.10
2018-08-19T00:38:57.738Z,48.40
2018-08-19T00:40:03.500Z,48.40
2018-08-19T00:41:08.387Z,48.40
2018-08-19T00:42:13.977Z,48.40
2018-08-19T00:43:18.956Z,48.50
2018-08-19T00:44:23.967Z,48.50
2018-08-19T00:45:28.856Z,48.50
2018-08-19T00:46:34.537Z,48.40
2018-08-19T00:47:39.630Z,48.40
2018-08-19T00:48:44.606Z,48.40
2018-08-19T00:49:50.323Z,48.40
2018-08-19T00:50:55.178Z,48.50
2018-08-19T00:52:00.214Z,48.50
2018-08-19T00:53:05.990Z,48.50
2018-08-19T00:54:11.004Z,48.50
2018-08-19T00:55:15.977Z,48.50
2018-08-19T00:56:21.567Z,48.50
2018-08-19T00:57:26.586Z,48.40
2018-08-19T00:58:31.409Z,48.50
2018-08-19T00:59:36.487Z,48.60
2018-08-19T01:00:41.517Z,48.50
2018-08-19T01:01:46.626Z,48.50
2018-08-19T01:02:51.761Z,48.50
2018-08-19T01:03:57.473Z,48.50
2018-08-19T01:05:02.634Z,48.50
2018-08-19T01:06:07.783Z,48.50
2018-08-19T01:07:12.796Z,48.50
2018-08-19T01:08:17.792Z,48.50
2018-08-19T01:09:22.773Z,48.50
2018-08-19T01:10:28.413Z,48.50
2018-08-19T01:11:33.545Z,48.50
2018-08-19T01:12:38.514Z,48.50
2018-08-19T01:13:43.638Z,48.50
2018-08-19T01:14:48.505Z,48.60
2018-08-19T01:15:54.210Z,48.50
2018-08-19T01:16:59.161Z,48.60
2018-08-19T01:18:04.282Z,48.50
2018-08-19T01:19:09.857Z,48.50
2018-08-19T01:20:15.541Z,48.50
2018-08-19T01:21:20.528Z,48.60
2018-08-19T01:22:25.488Z,48.60
2018-08-19T01:23:30.636Z,48.60
2018-08-19T01:24:35.702Z,48.60
2018-08-19T01:25:40.820Z,48.50
2018-08-19T01:26:46.508Z,48.60
2018-08-19T01:27:51.607Z,48.60
2018-08-19T01:28:56.581Z,48.60
2018-08-19T01:30:01.468Z,48.60
2018-08-19T01:31:06.507Z,48.70
2018-08-19T01:32:11.637Z,48.60
2018-08-19T01:33:16.658Z,48.50
2018-08-19T01:34:21.696Z,48.60
2018-08-19T01:35:26.850Z,48.70
2018-08-19T01:36:31.726Z,48.60
2018-08-19T01:37:36.916Z,48.60
2018-08-19T01:38:41.956Z,48.70
2018-08-19T01:39:46.990Z,48.60
2018-08-19T01:40:52.155Z,48.60
2018-08-19T01:41:57.165Z,48.70
2018-08-19T01:43:02.306Z,48.60
2018-08-19T01:44:07.386Z,48.50
2018-08-19T01:45:13.137Z,48.60
2018-08-19T01:46:18.759Z,48.60
2018-08-19T01:47:23.969Z,48.60
2018-08-19T01:48:29.232Z,48.60
2018-08-19T01:49:34.948Z,48.70
2018-08-19T01:50:40.563Z,48.70
2018-08-19T01:51:46.277Z,48.60
2018-08-19T01:52:51.287Z,48.60
2018-08-19T01:53:56.224Z,48.60
2018-08-19T01:55:01.232Z,48.60
2018-08-19T01:56:06.998Z,48.60
2018-08-19T01:57:12.071Z,48.60
2018-08-19T01:58:17.485Z,48.60
2018-08-19T01:59:23.227Z,48.60
2018-08-19T02:00:28.270Z,48.60
2018-08-19T02:01:33.284Z,48.70
2018-08-19T02:02:38.124Z,48.60
2018-08-19T02:03:43.102Z,49.30
2018-08-19T02:04:48.132Z,48.60
2018-08-19T02:05:53.284Z,48.60
2018-08-19T02:06:58.241Z,48.70
2018-08-19T02:08:03.994Z,48.60
2018-08-19T02:09:09.124Z,48.60
2018-08-19T02:10:14.111Z,48.70
2018-08-19T02:11:18.978Z,48.70
2018-08-19T02:12:23.816Z,48.70
2018-08-19T02:13:29.493Z,48.70
2018-08-19T02:14:34.368Z,48.70
2018-08-19T02:15:39.396Z,48.70
2018-08-19T02:16:44.286Z,48.70
2018-08-19T02:17:49.893Z,48.70
2018-08-19T02:18:54.774Z,48.70
2018-08-19T02:19:59.781Z,48.70
2018-08-19T02:21:05.449Z,48.70
2018-08-19T02:22:10.347Z,48.70
2018-08-19T02:23:15.313Z,48.70
2018-08-19T02:24:20.385Z,48.70
2018-08-19T02:25:26.004Z,48.80
2018-08-19T02:26:31.610Z,48.70
2018-08-19T02:27:36.553Z,48.70
2018-08-19T02:28:41.530Z,48.70
2018-08-19T02:29:47.167Z,48.60
2018-08-19T02:30:52.887Z,48.80
2018-08-19T02:31:57.955Z,48.70
2018-08-19T02:33:03.610Z,48.70
2018-08-19T02:34:08.766Z,48.70
2018-08-19T02:35:13.796Z,48.70
2018-08-19T02:36:18.802Z,48.70
2018-08-19T02:37:23.861Z,48.70
2018-08-19T02:38:29.610Z,48.70
2018-08-19T02:39:34.577Z,48.70
2018-08-19T02:40:39.722Z,48.70
2018-08-19T02:41:44.647Z,48.70
2018-08-19T02:42:49.522Z,48.70
2018-08-19T02:43:55.217Z,48.70
2018-08-19T02:45:00.190Z,48.70
2018-08-19T02:46:05.881Z,48.70
2018-08-19T02:47:10.916Z,48.70
2018-08-19T02:48:15.934Z,48.70
2018-08-19T02:49:21.631Z,48.70
2018-08-19T02:50:27.275Z,48.70
2018-08-19T02:51:33.046Z,48.80
2018-08-19T02:52:38.666Z,48.80
2018-08-19T02:53:44.302Z,48.80
2018-08-19T02:54:49.319Z,48.80
2018-08-19T02:55:54.895Z,48.70
2018-08-19T02:57:00.495Z,48.70
2018-08-19T02:58:05.402Z,48.70
2018-08-19T02:59:10.416Z,48.70
2018-08-19T03:00:15.481Z,48.80
2018-08-19T03:01:20.457Z,48.80
2018-08-19T03:02:25.592Z,48.80
2018-08-19T03:03:30.619Z,48.80
2018-08-19T03:04:35.834Z,48.80
2018-08-19T03:05:41.499Z,48.80
2018-08-19T03:06:46.483Z,48.80
2018-08-19T03:07:51.512Z,48.80
2018-08-19T03:08:56.455Z,49.40
2018-08-19T03:10:01.577Z,48.80
2018-08-19T03:11:06.691Z,48.80
2018-08-19T03:12:11.792Z,48.80
2018-08-19T03:13:16.804Z,48.80
2018-08-19T03:14:21.804Z,48.80
2018-08-19T03:15:27.457Z,48.70
2018-08-19T03:16:32.415Z,48.70
2018-08-19T03:17:37.420Z,48.70
2018-08-19T03:18:42.555Z,48.70
2018-08-19T03:19:48.133Z,48.70
2018-08-19T03:20:53.042Z,48.70
2018-08-19T03:21:58.064Z,48.70
2018-08-19T03:23:03.868Z,48.80
2018-08-19T03:24:09.612Z,48.80
2018-08-19T03:25:14.684Z,48.80
2018-08-19T03:26:19.885Z,48.80
2018-08-19T03:27:24.890Z,48.70
2018-08-19T03:28:29.753Z,48.70
2018-08-19T03:29:34.819Z,48.70
2018-08-19T03:30:40.518Z,48.70
2018-08-19T03:31:45.727Z,48.80
2018-08-19T03:32:50.948Z,48.80
2018-08-19T03:33:56.720Z,49.40
2018-08-19T03:35:01.944Z,48.70
2018-08-19T03:36:07.152Z,48.70
2018-08-19T03:37:12.035Z,48.80
2018-08-19T03:38:17.129Z,48.70
2018-08-19T03:39:22.128Z,48.80
2018-08-19T03:40:27.844Z,48.80
2018-08-19T03:41:32.846Z,48.80
2018-08-19T03:42:37.981Z,48.70
2018-08-19T03:43:43.685Z,48.80
2018-08-19T03:44:48.877Z,48.70
2018-08-19T03:45:53.910Z,48.80
2018-08-19T03:46:58.968Z,48.80
2018-08-19T03:48:04.609Z,48.80
2018-08-19T03:49:10.352Z,48.80
2018-08-19T03:50:15.935Z,48.80
2018-08-19T03:51:21.075Z,48.80
2018-08-19T03:52:26.068Z,48.80
2018-08-19T03:53:30.938Z,48.80
2018-08-19T03:54:35.943Z,48.80
2018-08-19T03:55:40.806Z,48.80
2018-08-19T03:56:45.877Z,48.80
2018-08-19T03:57:51.455Z,48.80
2018-08-19T03:58:56.605Z,48.80
2018-08-19T04:00:01.768Z,48.80
2018-08-19T04:01:07.416Z,48.80
2018-08-19T04:02:12.588Z,48.80
2018-08-19T04:03:17.435Z,48.80
2018-08-19T04:04:23.157Z,48.80
2018-08-19T04:05:28.040Z,48.80
2018-08-19T04:06:33.052Z,48.80
2018-08-19T04:07:38.770Z,48.80
2018-08-19T04:08:43.773Z,48.80
2018-08-19T04:09:48.756Z,48.80
2018-08-19T04:10:53.769Z,49.40
2018-08-19T04:11:58.940Z,48.80
2018-08-19T04:13:03.965Z,48.80
2018-08-19T04:14:08.967Z,48.80
2018-08-19T04:15:13.959Z,48.80
2018-08-19T04:16:19.018Z,48.80
2018-08-19T04:17:24.044Z,48.80
2018-08-19T04:18:29.028Z,48.80
2018-08-19T04:19:33.946Z,48.80
2018-08-19T04:20:38.925Z,48.80
2018-08-19T04:21:44.003Z,48.80
2018-08-19T04:22:49.621Z,48.80
2018-08-19T04:23:54.632Z,48.80
2018-08-19T04:25:00.349Z,48.80
2018-08-19T04:26:05.349Z,48.80
2018-08-19T04:27:11.014Z,48.80
2018-08-19T04:28:16.186Z,48.80
2018-08-19T04:29:21.281Z,48.80
2018-08-19T04:30:26.894Z,48.80
2018-08-19T04:31:31.876Z,48.80
2018-08-19T04:32:36.706Z,48.80
2018-08-19T04:33:41.858Z,48.80
2018-08-19T04:34:46.921Z,48.80
2018-08-19T04:35:51.928Z,48.80
2018-08-19T04:36:57.116Z,48.80
2018-08-19T04:38:02.720Z,48.80
2018-08-19T04:39:07.600Z,48.80
2018-08-19T04:40:13.275Z,48.80
2018-08-19T04:41:18.265Z,48.80
2018-08-19T04:42:23.361Z,48.80
2018-08-19T04:43:28.821Z,48.80
2018-08-19T04:44:33.904Z,48.80
2018-08-19T04:45:38.986Z,48.80
2018-08-19T04:46:43.952Z,48.80
2018-08-19T04:47:48.926Z,48.80
2018-08-19T04:48:53.974Z,48.80
2018-08-19T04:49:59.157Z,48.90
2018-08-19T04:51:04.782Z,48.80
2018-08-19T04:52:09.858Z,48.90
2018-08-19T04:53:15.456Z,48.80
2018-08-19T04:54:21.064Z,48.80
2018-08-19T04:55:26.241Z,48.90
2018-08-19T04:56:32.006Z,48.80
2018-08-19T04:57:37.694Z,48.80
2018-08-19T04:58:43.400Z,48.80
2018-08-19T04:59:49.100Z,48.80
2018-08-19T05:00:53.914Z,48.80
2018-08-19T05:01:58.919Z,48.80
2018-08-19T05:03:04.562Z,48.90
2018-08-19T05:04:09.556Z,48.80
2018-08-19T05:05:14.678Z,48.80
2018-08-19T05:06:19.839Z,48.80
2018-08-19T05:07:24.962Z,48.80
2018-08-19T05:08:30.035Z,48.80
2018-08-19T05:09:34.747Z,48.80
2018-08-19T05:10:39.769Z,48.80
2018-08-19T05:11:45.417Z,48.80
2018-08-19T05:12:51.122Z,48.80
2018-08-19T05:13:56.797Z,48.80
2018-08-19T05:15:01.861Z,48.80
2018-08-19T05:16:06.879Z,48.80
2018-08-19T05:17:12.027Z,48.80
2018-08-19T05:18:17.704Z,48.80
2018-08-19T05:19:22.847Z,48.80
2018-08-19T05:20:27.978Z,48.80
2018-08-19T05:21:32.975Z,48.80
2018-08-19T05:22:38.053Z,48.80
2018-08-19T05:23:43.567Z,48.80
2018-08-19T05:24:48.658Z,48.80
2018-08-19T05:25:53.617Z,48.90
2018-08-19T05:26:58.769Z,48.90
2018-08-19T05:28:03.712Z,48.80
2018-08-19T05:29:08.891Z,48.80
2018-08-19T05:30:13.870Z,48.90
2018-08-19T05:31:19.542Z,48.90
2018-08-19T05:32:24.510Z,48.90
2018-08-19T05:33:29.624Z,48.90
2018-08-19T05:34:34.761Z,48.90
2018-08-19T05:35:39.782Z,48.90
2018-08-19T05:36:44.789Z,48.90
2018-08-19T05:37:49.969Z,48.90
2018-08-19T05:38:55.139Z,48.90
2018-08-19T05:40:00.803Z,48.80
2018-08-19T05:41:05.918Z,48.90
2018-08-19T05:42:11.527Z,48.90
2018-08-19T05:43:16.397Z,48.90
2018-08-19T05:44:21.998Z,48.90
2018-08-19T05:45:27.069Z,48.90
2018-08-19T05:46:32.062Z,48.80
2018-08-19T05:47:37.244Z,48.90
2018-08-19T05:48:42.987Z,48.90
2018-08-19T05:49:48.542Z,49.00
2018-08-19T05:50:53.731Z,48.90
2018-08-19T05:51:58.885Z,48.90
2018-08-19T05:53:03.903Z,48.90
2018-08-19T05:54:09.040Z,48.90
2018-08-19T05:55:14.099Z,48.90
2018-08-19T05:56:19.809Z,48.90
2018-08-19T05:57:24.715Z,48.90
2018-08-19T05:58:30.372Z,48.90
2018-08-19T05:59:35.473Z,48.90
2018-08-19T06:00:41.428Z,48.90
2018-08-19T06:01:46.417Z,48.90
2018-08-19T06:02:51.465Z,48.90
2018-08-19T06:03:56.452Z,48.90
2018-08-19T06:05:02.063Z,48.90
2018-08-19T06:06:07.189Z,48.90
2018-08-19T06:07:12.164Z,48.90
2018-08-19T06:08:17.165Z,49.00
2018-08-19T06:09:22.881Z,49.00
2018-08-19T06:10:27.903Z,48.90
2018-08-19T06:11:33.061Z,49.00
2018-08-19T06:12:38.648Z,49.10
2018-08-19T06:13:43.801Z,48.90
2018-08-19T06:14:48.919Z,48.90
2018-08-19T06:15:53.887Z,49.00
2018-08-19T06:16:58.965Z,48.90
2018-08-19T06:18:04.591Z,48.90
2018-08-19T06:19:09.551Z,49.00
2018-08-19T06:20:14.414Z,49.00
2018-08-19T06:21:19.260Z,49.00
2018-08-19T06:22:24.142Z,49.00
2018-08-19T06:23:29.895Z,49.00
2018-08-19T06:24:34.849Z,49.00
2018-08-19T06:25:39.934Z,49.00
2018-08-19T06:26:45.569Z,49.00
2018-08-19T06:27:50.720Z,49.00
2018-08-19T06:28:56.290Z,49.00
2018-08-19T06:30:01.301Z,49.00
2018-08-19T06:31:06.389Z,49.00
2018-08-19T06:32:11.949Z,49.00
2018-08-19T06:33:17.041Z,49.00
2018-08-19T06:34:22.113Z,49.10
2018-08-19T06:35:27.306Z,49.10
2018-08-19T06:36:32.345Z,49.10
2018-08-19T06:37:37.415Z,49.10
2018-08-19T06:38:42.334Z,49.10
2018-08-19T06:39:47.469Z,49.10
2018-08-19T06:40:52.549Z,49.10
2018-08-19T06:41:58.200Z,49.10
2018-08-19T06:43:04.324Z,49.10
2018-08-19T06:44:09.182Z,49.10
2018-08-19T06:45:14.100Z,49.10
2018-08-19T06:46:19.143Z,49.10
2018-08-19T06:47:24.003Z,49.10
2018-08-19T06:48:29.113Z,49.10
2018-08-19T06:49:34.135Z,49.10
2018-08-19T06:50:39.160Z,49.10
2018-08-19T06:51:44.306Z,49.10
2018-08-19T06:52:49.323Z,49.10
2018-08-19T06:53:54.133Z,49.10
2018-08-19T06:54:59.911Z,49.10
2018-08-19T06:56:05.074Z,49.00
2018-08-19T06:57:10.097Z,49.10
2018-08-19T06:58:15.782Z,49.10
2018-08-19T06:59:20.934Z,49.10
2018-08-19T07:00:26.042Z,49.10
2018-08-19T07:01:31.729Z,49.10
2018-08-19T07:02:36.748Z,49.10
2018-08-19T07:03:41.981Z,49.10
2018-08-19T07:04:47.628Z,49.10
2018-08-19T07:05:52.602Z,49.10
2018-08-19T07:06:57.769Z,49.10
2018-08-19T07:08:02.797Z,49.10
2018-08-19T07:09:07.986Z,49.10
2018-08-19T07:10:13.067Z,49.10
2018-08-19T07:11:18.107Z,49.20
2018-08-19T07:12:23.161Z,49.10
2018-08-19T07:13:28.240Z,49.10
2018-08-19T07:14:33.211Z,49.10
2018-08-19T07:15:38.360Z,49.20
2018-08-19T07:16:43.339Z,49.10
2018-08-19T07:17:48.491Z,49.10
2018-08-19T07:18:53.443Z,49.20
2018-08-19T07:19:59.212Z,49.20
2018-08-19T07:21:04.233Z,49.10
2018-08-19T07:22:09.495Z,49.10
2018-08-19T07:23:14.619Z,49.20
2018-08-19T07:24:19.771Z,49.20
2018-08-19T07:25:24.912Z,49.20
2018-08-19T07:26:29.885Z,49.20
2018-08-19T07:27:35.019Z,49.20
2018-08-19T07:28:40.646Z,49.20
2018-08-19T07:29:45.872Z,49.20
2018-08-19T07:30:50.787Z,49.20
2018-08-19T07:31:55.828Z,49.20
2018-08-19T07:33:01.539Z,49.20
2018-08-19T07:34:06.395Z,49.30
2018-08-19T07:35:11.767Z,49.20
2018-08-19T07:36:17.557Z,49.20
2018-08-19T07:37:22.630Z,49.20
2018-08-19T07:38:27.638Z,49.20
2018-08-19T07:39:32.609Z,49.20
2018-08-19T07:40:38.225Z,49.30
2018-08-19T07:41:43.299Z,49.20
2018-08-19T07:42:49.043Z,49.20
2018-08-19T07:43:54.272Z,49.30
2018-08-19T07:44:59.231Z,49.20
2018-08-19T07:46:05.102Z,49.20
2018-08-19T07:47:10.117Z,49.20
2018-08-19T07:48:15.164Z,49.20
2018-08-19T07:49:20.754Z,49.20
2018-08-19T07:50:25.748Z,49.20
2018-08-19T07:51:30.785Z,49.20
2018-08-19T07:52:35.987Z,49.20
2018-08-19T07:53:40.983Z,49.20
2018-08-19T07:54:45.956Z,49.20
2018-08-19T07:55:50.936Z,49.20
2018-08-19T07:56:56.670Z,49.20
2018-08-19T07:58:01.806Z,49.20
2018-08-19T07:59:06.811Z,49.20
2018-08-19T08:00:12.511Z,49.30
2018-08-19T08:01:17.428Z,49.20
2018-08-19T08:02:23.151Z,49.30
2018-08-19T08:03:28.310Z,49.30
2018-08-19T08:04:33.331Z,49.30
2018-08-19T08:05:38.392Z,49.30
2018-08-19T08:06:44.018Z,49.20
2018-08-19T08:07:49.159Z,49.30
2018-08-19T08:08:54.281Z,49.20
2018-08-19T08:09:59.543Z,49.30
2018-08-19T08:11:04.581Z,49.30
2018-08-19T08:12:09.687Z,49.30
2018-08-19T08:13:14.839Z,49.30
2018-08-19T08:14:20.469Z,49.30
2018-08-19T08:15:26.160Z,49.30
2018-08-19T08:16:31.121Z,49.30
2018-08-19T08:17:36.234Z,49.30
2018-08-19T08:18:41.280Z,49.30
2018-08-19T08:19:47.257Z,49.30
2018-08-19T08:20:52.260Z,49.30
2018-08-19T08:21:57.239Z,49.40
2018-08-19T08:23:02.178Z,49.30
2018-08-19T08:24:07.178Z,49.30
2018-08-19T08:25:12.231Z,49.30
2018-08-19T08:26:18.015Z,49.30
2018-08-19T08:27:23.105Z,49.90
2018-08-19T08:28:28.124Z,49.30
2018-08-19T08:29:32.972Z,49.30
2018-08-19T08:30:38.002Z,49.30
2018-08-19T08:31:43.094Z,49.30
2018-08-19T08:32:48.791Z,49.30
2018-08-19T08:33:53.806Z,49.30
2018-08-19T08:34:58.836Z,49.30
2018-08-19T08:36:04.591Z,49.30
2018-08-19T08:37:09.597Z,49.30
2018-08-19T08:38:14.706Z,49.30
2018-08-19T08:39:20.529Z,49.30
2018-08-19T08:40:25.527Z,49.40
2018-08-19T08:41:30.553Z,49.40
2018-08-19T08:42:36.182Z,49.40
2018-08-19T08:43:41.345Z,49.40
2018-08-19T08:44:46.253Z,49.30
2018-08-19T08:45:51.800Z,50.00
2018-08-19T08:46:56.827Z,49.40
2018-08-19T08:48:02.109Z,49.40
2018-08-19T08:49:07.081Z,49.40
2018-08-19T08:50:12.143Z,49.40
2018-08-19T08:51:17.272Z,49.40
2018-08-19T08:52:22.547Z,49.40
2018-08-19T08:53:27.624Z,49.40
2018-08-19T08:54:32.972Z,49.40
2018-08-19T08:55:38.025Z,49.40
2018-08-19T08:56:43.983Z,49.40
2018-08-19T08:57:49.013Z,49.40
2018-08-19T08:58:54.803Z,49.40
2018-08-19T08:59:59.833Z,49.40
2018-08-19T09:01:04.836Z,49.40
2018-08-19T09:02:10.607Z,49.40
2018-08-19T09:03:16.046Z,49.50
2018-08-19T09:04:21.027Z,49.50
2018-08-19T09:05:25.926Z,49.50
2018-08-19T09:06:30.901Z,49.50
2018-08-19T09:07:36.062Z,49.50
2018-08-19T09:08:41.218Z,49.50
2018-08-19T09:09:46.313Z,49.50
2018-08-19T09:10:51.980Z,49.50
2018-08-19T09:11:57.611Z,49.50
2018-08-19T09:13:02.826Z,49.50
2018-08-19T09:14:08.061Z,49.50
2018-08-19T09:15:13.121Z,49.50
2018-08-19T09:16:18.159Z,49.50
2018-08-19T09:17:23.186Z,49.60
2018-08-19T09:18:28.231Z,49.50
2018-08-19T09:19:33.323Z,49.50
2018-08-19T09:20:38.513Z,49.50
2018-08-19T09:21:43.670Z,49.50
2018-08-19T09:22:48.753Z,49.50
2018-08-19T09:23:53.913Z,49.50
2018-08-19T09:24:59.064Z,49.50
2018-08-19T09:26:04.276Z,49.50
2018-08-19T09:27:09.449Z,49.80
2018-08-19T09:28:14.761Z,49.50
2018-08-19T09:29:20.542Z,49.50
2018-08-19T09:30:25.888Z,49.50
2018-08-19T09:31:31.658Z,49.50
2018-08-19T09:32:36.801Z,49.50
2018-08-19T09:33:41.640Z,49.50
2018-08-19T09:34:47.358Z,49.50
2018-08-19T09:35:52.270Z,49.50
2018-08-19T09:36:57.478Z,49.50
2018-08-19T09:38:03.233Z,49.50
2018-08-19T09:39:08.403Z,49.50
2018-08-19T09:40:13.669Z,49.50
2018-08-19T09:41:18.834Z,49.60
2018-08-19T09:42:23.946Z,49.50
2018-08-19T09:43:29.043Z,49.50
2018-08-19T09:44:34.176Z,49.50
2018-08-19T09:45:39.319Z,49.70
2018-08-19T09:46:44.256Z,49.60
2018-08-19T09:47:49.291Z,49.60
2018-08-19T09:48:54.152Z,49.60
2018-08-19T09:49:59.368Z,49.60
2018-08-19T09:51:05.033Z,49.60
2018-08-19T09:52:10.078Z,49.50
2018-08-19T09:53:15.123Z,49.50
2018-08-19T09:54:20.061Z,49.50
2018-08-19T09:55:25.182Z,49.60
2018-08-19T09:56:30.397Z,49.50
2018-08-19T09:57:35.611Z,49.50
2018-08-19T09:58:40.685Z,49.50
2018-08-19T09:59:46.545Z,49.50
2018-08-19T10:00:51.787Z,49.50
2018-08-19T10:01:57.490Z,49.50
2018-08-19T10:03:03.288Z,49.50
2018-08-19T10:04:08.563Z,49.60
2018-08-19T10:05:13.583Z,49.50
2018-08-19T10:06:19.323Z,49.60
2018-08-19T10:07:24.359Z,49.50
2018-08-19T10:08:29.935Z,49.50
2018-08-19T10:09:35.252Z,49.50
2018-08-19T10:10:40.170Z,49.50
2018-08-19T10:11:45.195Z,49.50
2018-08-19T10:12:50.284Z,49.50
2018-08-19T10:13:55.521Z,49.50
2018-08-19T10:15:00.522Z,49.50
2018-08-19T10:16:05.579Z,49.50
2018-08-19T10:17:10.490Z,49.50
2018-08-19T10:18:15.819Z,49.50
2018-08-19T10:19:21.215Z,49.60
2018-08-19T10:20:26.226Z,49.60
2018-08-19T10:21:31.246Z,49.60
2018-08-19T10:22:36.374Z,49.60
2018-08-19T10:23:41.491Z,49.60
2018-08-19T10:24:46.773Z,49.60
2018-08-19T10:25:51.908Z,49.60
2018-08-19T10:26:57.024Z,49.60
2018-08-19T10:28:02.087Z,49.60
2018-08-19T10:29:07.146Z,49.60
2018-08-19T10:30:12.019Z,49.60
2018-08-19T10:31:17.261Z,49.60
2018-08-19T10:32:22.271Z,49.60
2018-08-19T10:33:27.242Z,49.60
2018-08-19T10:34:32.247Z,49.60
2018-08-19T10:35:37.300Z,49.60
2018-08-19T10:36:42.167Z,50.30
2018-08-19T10:37:47.826Z,49.60
2018-08-19T10:38:53.631Z,49.60
2018-08-19T10:39:58.669Z,49.60
2018-08-19T10:41:03.690Z,49.60
2018-08-19T10:42:08.943Z,49.60
2018-08-19T10:43:13.791Z,49.60
2018-08-19T10:44:19.225Z,49.60
2018-08-19T10:45:24.852Z,49.60
2018-08-19T10:46:29.874Z,49.60
2018-08-19T10:47:34.987Z,49.60
2018-08-19T10:48:39.837Z,49.60
2018-08-19T10:49:45.429Z,49.60
2018-08-19T10:50:50.556Z,49.60
2018-08-19T10:51:56.340Z,49.60
2018-08-19T10:53:01.958Z,49.60
2018-08-19T10:54:06.999Z,49.60
2018-08-19T10:55:12.175Z,49.60
2018-08-19T10:56:17.382Z,49.60
2018-08-19T10:57:22.410Z,49.60
2018-08-19T10:58:27.523Z,49.70
2018-08-19T10:59:32.309Z,49.60
2018-08-19T11:00:38.042Z,49.70
2018-08-19T11:01:43.180Z,49.60
2018-08-19T11:02:48.228Z,49.70
2018-08-19T11:03:53.251Z,49.70
2018-08-19T11:04:58.467Z,49.70
2018-08-19T11:06:03.639Z,49.70
2018-08-19T11:07:08.799Z,49.60
2018-08-19T11:08:13.882Z,49.60
2018-08-19T11:09:18.966Z,49.70
2018-08-19T11:10:24.025Z,49.70
2018-08-19T11:11:29.070Z,49.60
2018-08-19T11:12:34.839Z,49.60
2018-08-19T11:13:39.691Z,49.60
2018-08-19T11:14:45.465Z,49.70
2018-08-19T11:15:50.473Z,49.70
2018-08-19T11:16:55.677Z,49.60
2018-08-19T11:18:00.817Z,49.60
2018-08-19T11:19:05.660Z,49.60
2018-08-19T11:20:10.825Z,49.50
2018-08-19T11:21:16.697Z,49.50
2018-08-19T11:22:22.407Z,49.60
2018-08-19T11:23:27.429Z,49.60
2018-08-19T11:24:32.426Z,49.60
2018-08-19T11:25:37.405Z,49.60
2018-08-19T11:26:42.526Z,49.60
2018-08-19T11:27:47.647Z,49.60
2018-08-19T11:28:52.846Z,49.60
2018-08-19T11:29:58.585Z,49.70
2018-08-19T11:31:03.648Z,49.60
2018-08-19T11:32:08.941Z,49.60
2018-08-19T11:33:14.077Z,49.60
2018-08-19T11:34:19.936Z,49.50
2018-08-19T11:35:25.620Z,49.60
2018-08-19T11:36:31.440Z,49.50
2018-08-19T11:37:36.536Z,49.60
2018-08-19T11:38:41.582Z,49.50
2018-08-19T11:39:46.601Z,49.50
2018-08-19T11:40:51.687Z,49.50
2018-08-19T11:41:58.050Z,49.50
2018-08-19T11:43:03.780Z,49.40
2018-08-19T11:44:10.324Z,49.50
2018-08-19T11:45:15.289Z,49.50
2018-08-19T11:46:20.336Z,49.50
2018-08-19T11:47:25.334Z,49.50
2018-08-19T11:48:30.207Z,49.50
2018-08-19T11:49:35.374Z,49.40
2018-08-19T11:50:40.456Z,49.40
2018-08-19T11:51:45.974Z,49.40
2018-08-19T11:52:51.059Z,49.40
2018-08-19T11:53:56.061Z,49.40
2018-08-19T11:55:01.815Z,49.30
2018-08-19T11:56:06.962Z,49.30
2018-08-19T11:57:12.190Z,49.30
2018-08-19T11:58:17.439Z,49.30
2018-08-19T11:59:22.771Z,49.30
2018-08-19T12:00:27.872Z,49.30
2018-08-19T12:01:32.923Z,49.30
2018-08-19T12:02:37.919Z,49.20
2018-08-19T12:03:42.897Z,49.20
2018-08-19T12:04:47.989Z,49.20
2018-08-19T12:05:53.000Z,49.20
2018-08-19T12:06:57.959Z,49.20
2018-08-19T12:08:03.574Z,49.20
2018-08-19T12:09:08.797Z,49.20
2018-08-19T12:10:13.899Z,49.30
2018-08-19T12:11:18.804Z,49.40
2018-08-19T12:12:23.986Z,49.30
2018-08-19T12:13:29.203Z,49.30
2018-08-19T12:14:34.942Z,49.30
2018-08-19T12:15:40.121Z,49.20
2018-08-19T12:16:45.114Z,49.20
2018-08-19T12:17:50.287Z,49.10
2018-08-19T12:18:55.452Z,49.10
2018-08-19T12:20:01.219Z,49.10
2018-08-19T12:21:06.221Z,49.10
2018-08-19T12:22:11.372Z,49.10
2018-08-19T12:23:17.456Z,49.20
2018-08-19T12:24:22.485Z,49.80
2018-08-19T12:25:27.513Z,49.20
2018-08-19T12:26:33.164Z,49.10
2018-08-19T12:27:38.412Z,49.10
2018-08-19T12:28:43.209Z,49.20
2018-08-19T12:29:48.257Z,49.20
2018-08-19T12:30:53.172Z,49.20
2018-08-19T12:31:58.300Z,49.20
2018-08-19T12:33:03.385Z,49.20
2018-08-19T12:34:08.478Z,49.20
2018-08-19T12:35:13.512Z,49.20
2018-08-19T12:36:18.666Z,49.30
2018-08-19T12:37:23.995Z,49.20
2018-08-19T12:38:28.843Z,49.20
2018-08-19T12:39:33.841Z,49.10
2018-08-19T12:40:39.550Z,49.10
2018-08-19T12:41:44.645Z,49.20
2018-08-19T12:42:50.222Z,49.10
2018-08-19T12:43:55.415Z,49.10
2018-08-19T12:45:00.586Z,49.10
2018-08-19T12:46:05.508Z,49.10
2018-08-19T12:47:11.084Z,49.10
2018-08-19T12:48:16.154Z,49.10
2018-08-19T12:49:21.872Z,49.10
2018-08-19T12:50:26.974Z,49.10
2018-08-19T12:51:32.717Z,49.10
2018-08-19T12:52:37.475Z,49.10
2018-08-19T12:53:42.608Z,49.10
2018-08-19T12:54:47.750Z,49.10
2018-08-19T12:55:53.070Z,49.10
2018-08-19T12:56:57.984Z,49.10
2018-08-19T12:58:02.968Z,49.10
2018-08-19T12:59:07.982Z,49.10
2018-08-19T13:00:13.071Z,49.10
2018-08-19T13:01:18.812Z,49.10
2018-08-19T13:02:24.630Z,49.10
2018-08-19T13:03:29.710Z,49.10
2018-08-19T13:04:34.715Z,49.10
2018-08-19T13:05:39.873Z,49.20
2018-08-19T13:06:44.750Z,49.20
2018-08-19T13:07:49.893Z,49.20
2018-08-19T13:08:55.020Z,49.10
2018-08-19T13:10:00.015Z,49.10
2018-08-19T13:11:04.891Z,49.10
2018-08-19T13:12:10.094Z,49.10
2018-08-19T13:13:15.678Z,49.20
2018-08-19T13:14:20.700Z,49.10
2018-08-19T13:15:25.840Z,49.20
2018-08-19T13:16:31.011Z,49.20
2018-08-19T13:17:36.628Z,49.20
2018-08-19T13:18:42.293Z,49.10
2018-08-19T13:19:47.300Z,49.20
2018-08-19T13:20:52.387Z,49.10
2018-08-19T13:21:57.394Z,49.10
2018-08-19T13:23:03.185Z,49.10
2018-08-19T13:24:08.178Z,49.10
2018-08-19T13:25:13.746Z,49.00
2018-08-19T13:26:18.959Z,49.00
2018-08-19T13:27:23.951Z,49.00
2018-08-19T13:28:29.027Z,49.00
2018-08-19T13:29:34.043Z,49.10
2018-08-19T13:30:40.179Z,49.00
2018-08-19T13:31:45.804Z,49.00
2018-08-19T13:32:50.801Z,49.00
2018-08-19T13:33:55.793Z,49.00
2018-08-19T13:35:01.519Z,49.00
2018-08-19T13:36:07.254Z,49.00
2018-08-19T13:37:12.255Z,49.00
2018-08-19T13:38:17.905Z,49.10
2018-08-19T13:39:22.850Z,49.10
2018-08-19T13:40:28.059Z,49.10
2018-08-19T13:41:33.286Z,49.00
2018-08-19T13:42:38.393Z,49.00
2018-08-19T13:43:43.601Z,49.00
2018-08-19T13:44:48.722Z,49.00
2018-08-19T13:45:53.884Z,49.00
2018-08-19T13:46:58.787Z,49.00
2018-08-19T13:48:03.925Z,49.00
2018-08-19T13:49:09.649Z,49.00
2018-08-19T13:50:15.353Z,49.00
2018-08-19T13:51:20.349Z,48.90
2018-08-19T13:52:26.105Z,49.00
2018-08-19T13:53:31.893Z,48.90
2018-08-19T13:54:37.063Z,48.90
2018-08-19T13:55:42.274Z,49.00
2018-08-19T13:56:48.028Z,49.00
2018-08-19T13:57:52.915Z,49.00
2018-08-19T13:58:57.939Z,49.00
2018-08-19T14:00:03.253Z,48.90